Elk Run Heights, Iowa
Current Conditions -  °F | °C
As of 6:07 PM on Sunday 23 Nov 2014 (Local Time) from KALO Reporting Station
Light Rain Light Rain  
Wind Chill: 47°   Ceiling: 500
Heat Index: 47°   Visibility: 0.5mi
Dew Point: 47°   Wind: 3mph
Humidity: 100%   Direction: 340°NNW
Pressure: 29.3"   Gusts: NA
Location:  42.4775°N, 92.2749°W
Report Text: KALO 240007Z 34003KT 1/2SM R12/3000V3500FT -RA FG VV005 08/08 A2930 RMK AO2 P0000 T00830083 $
Loading
Personal Weather Stations






























Interactive Weather Map New forecast layout! Learn more

10-Day Weather Forecast

Advertisements
Track Severe Weather on mobile